sensor_id;sensor_type;location;lat;lon;timestamp;pressure;altitude;pressure_sealevel;temperature;humidity
59951;BME280;45812;53.540;9.774;2023-02-13T00:01:05;103827.59;;;7.22;100.00
59951;BME280;45812;53.540;9.774;2023-02-13T00:03:30;103826.69;;;7.23;100.00
59951;BME280;45812;53.540;9.774;2023-02-13T00:05:55;103822.44;;;7.19;100.00
59951;BME280;45812;53.540;9.774;2023-02-13T00:08:20;103827.75;;;7.19;100.00
59951;BME280;45812;53.540;9.774;2023-02-13T00:10:46;103831.97;;;7.23;100.00
59951;BME280;45812;53.540;9.774;2023-02-13T00:13:12;103821.53;;;7.20;100.00
59951;BME280;45812;53.540;9.774;2023-02-13T00:15:37;103824.25;;;7.18;100.00
59951;BME280;45812;53.540;9.774;2023-02-13T00:18:03;103826.88;;;7.18;100.00
59951;BME280;45812;53.540;9.774;2023-02-13T00:20:28;103830.41;;;7.19;100.00
59951;BME280;45812;53.540;9.774;2023-02-13T00:22:53;103826.03;;;7.18;100.00
59951;BME280;45812;53.540;9.774;2023-02-13T00:25:19;103826.88;;;7.18;100.00
59951;BME280;45812;53.540;9.774;2023-02-13T00:27:44;103824.25;;;7.18;100.00
59951;BME280;45812;53.540;9.774;2023-02-13T00:30:09;103828.47;;;7.22;100.00
59951;BME280;45812;53.540;9.774;2023-02-13T00:32:35;103824.88;;;7.23;100.00
59951;BME280;45812;53.540;9.774;2023-02-13T00:35:00;103821.31;;;7.24;100.00
59951;BME280;45812;53.540;9.774;2023-02-13T00:37:25;103815.03;;;7.27;100.00
59951;BME280;45812;53.540;9.774;2023-02-13T00:39:51;103821.13;;;7.29;100.00
59951;BME280;45812;53.540;9.774;2023-02-13T00:42:16;103814.19;;;7.26;100.00
59951;BME280;45812;53.540;9.774;2023-02-13T00:44:42;103820.41;;;7.25;100.00
59951;BME280;45812;53.540;9.774;2023-02-13T00:47:07;103816.00;;;7.24;100.00
59951;BME280;45812;53.540;9.774;2023-02-13T00:49:32;103824.78;;;7.26;100.00
59951;BME280;45812;53.540;9.774;2023-02-13T00:51:57;103826.56;;;7.26;100.00
59951;BME280;45812;53.540;9.774;2023-02-13T00:54:23;103815.91;;;7.27;100.00
59951;BME280;45812;53.540;9.774;2023-02-13T00:56:48;103816.84;;;7.26;100.00
59951;BME280;45812;53.540;9.774;2023-02-13T00:59:14;103831.81;;;7.27;100.00
59951;BME280;45812;53.540;9.774;2023-02-13T01:01:39;103823.16;;;7.22;100.00
59951;BME280;45812;53.540;9.774;2023-02-13T01:04:05;103826.75;;;7.21;100.00
59951;BME280;45812;53.540;9.774;2023-02-13T01:06:30;103816.94;;;7.23;100.00
59951;BME280;45812;53.540;9.774;2023-02-13T01:08:55;103821.59;;;7.18;100.00
59951;BME280;45812;53.540;9.774;2023-02-13T01:11:21;103811.19;;;7.14;100.00
59951;BME280;45812;53.540;9.774;2023-02-13T01:13:46;103812.00;;;7.16;100.00
59951;BME280;45812;53.540;9.774;2023-02-13T01:16:12;103825.31;;;7.14;100.00
59951;BME280;45812;53.540;9.774;2023-02-13T01:18:39;103812.13;;;7.13;100.00
59951;BME280;45812;53.540;9.774;2023-02-13T01:21:06;103808.88;;;7.06;100.00
59951;BME280;45812;53.540;9.774;2023-02-13T01:23:34;103807.22;;;7.04;100.00
59951;BME280;45812;53.540;9.774;2023-02-13T01:26:03;103804.69;;;7.01;100.00
59951;BME280;45812;53.540;9.774;2023-02-13T01:28:28;103807.28;;;7.02;100.00
59951;BME280;45812;53.540;9.774;2023-02-13T01:30:55;103809.06;;;7.02;100.00
59951;BME280;45812;53.540;9.774;2023-02-13T01:33:26;103809.34;;;6.95;100.00
59951;BME280;45812;53.540;9.774;2023-02-13T01:35:51;103802.91;;;7.01;100.00
59951;BME280;45812;53.540;9.774;2023-02-13T01:38:17;103797.09;;;6.93;100.00
59951;BME280;45812;53.540;9.774;2023-02-13T01:40:53;103792.03;;;6.87;100.00
59951;BME280;45812;53.540;9.774;2023-02-13T01:43:19;103797.31;;;6.88;100.00
59951;BME280;45812;53.540;9.774;2023-02-13T01:45:48;103794.81;;;6.84;100.00
59951;BME280;45812;53.540;9.774;2023-02-13T01:48:17;103792.19;;;6.84;100.00
59951;BME280;45812;53.540;9.774;2023-02-13T01:50:47;103780.53;;;6.88;100.00
59951;BME280;45812;53.540;9.774;2023-02-13T01:53:24;103785.97;;;6.85;100.00
59951;BME280;45812;53.540;9.774;2023-02-13T01:55:58;103779.66;;;6.87;100.00
59951;BME280;45812;53.540;9.774;2023-02-13T01:58:29;103779.34;;;6.75;100.00
59951;BME280;45812;53.540;9.774;2023-02-13T02:00:56;103781.66;;;6.82;100.00
59951;BME280;45812;53.540;9.774;2023-02-13T02:03:36;103775.63;;;6.79;100.00
59951;BME280;45812;53.540;9.774;2023-02-13T02:06:02;103771.94;;;6.83;100.00
59951;BME280;45812;53.540;9.774;2023-02-13T02:08:29;103771.00;;;6.84;100.00
59951;BME280;45812;53.540;9.774;2023-02-13T02:10:58;103767.69;;;6.79;100.00
59951;BME280;45812;53.540;9.774;2023-02-13T02:13:27;103773.00;;;6.79;100.00
59951;BME280;45812;53.540;9.774;2023-02-13T02:15:52;103771.28;;;6.78;100.00
59951;BME280;45812;53.540;9.774;2023-02-13T02:18:21;103758.81;;;6.80;100.00
59951;BME280;45812;53.540;9.774;2023-02-13T02:21:37;103760.88;;;6.73;100.00
59951;BME280;45812;53.540;9.774;2023-02-13T02:27:18;103763.47;;;6.75;100.00
59951;BME280;45812;53.540;9.774;2023-02-13T02:32:43;103754.72;;;6.73;100.00
59951;BME280;45812;53.540;9.774;2023-02-13T02:35:25;103759.25;;;6.69;100.00
59951;BME280;45812;53.540;9.774;2023-02-13T02:38:05;103755.75;;;6.68;100.00
59951;BME280;45812;53.540;9.774;2023-02-13T02:48:42;103763.03;;;6.63;100.00
59951;BME280;45812;53.540;9.774;2023-02-13T02:51:47;103761.97;;;6.67;100.00
59951;BME280;45812;53.540;9.774;2023-02-13T02:54:21;103775.06;;;6.72;100.00
59951;BME280;45812;53.540;9.774;2023-02-13T02:57:12;103756.75;;;6.66;100.00
59951;BME280;45812;53.540;9.774;2023-02-13T02:59:39;103761.06;;;6.68;100.00
59951;BME280;45812;53.540;9.774;2023-02-13T03:02:25;103759.25;;;6.69;100.00
59951;BME280;45812;53.540;9.774;2023-02-13T03:05:18;103756.75;;;6.66;100.00
59951;BME280;45812;53.540;9.774;2023-02-13T03:08:03;103756.88;;;6.63;100.00
59951;BME280;45812;53.540;9.774;2023-02-13T03:10:32;103754.38;;;6.60;100.00
59951;BME280;45812;53.540;9.774;2023-02-13T03:13:33;103772.53;;;6.47;100.00
59951;BME280;45812;53.540;9.774;2023-02-13T03:16:01;103764.47;;;6.50;100.00
59951;BME280;45812;53.540;9.774;2023-02-13T03:18:54;103761.13;;;6.67;100.00
59951;BME280;45812;53.540;9.774;2023-02-13T03:21:56;103751.81;;;6.58;100.00
59951;BME280;45812;53.540;9.774;2023-02-13T03:30:21;103753.03;;;6.50;100.00
59951;BME280;45812;53.540;9.774;2023-02-13T03:33:02;103762.59;;;6.54;100.00
59951;BME280;45812;53.540;9.774;2023-02-13T03:38:42;103765.97;;;6.57;100.00
59951;BME280;45812;53.540;9.774;2023-02-13T03:41:20;103762.66;;;6.52;100.00
59951;BME280;45812;53.540;9.774;2023-02-13T03:44:00;103768.75;;;6.54;100.00
59951;BME280;45812;53.540;9.774;2023-02-13T03:46:29;103773.09;;;6.55;100.00
59951;BME280;45812;53.540;9.774;2023-02-13T03:48:56;103768.53;;;6.59;100.00
59951;BME280;45812;53.540;9.774;2023-02-13T03:51:50;103763.19;;;6.60;100.00
59951;BME280;45812;53.540;9.774;2023-02-13T03:54:28;103775.41;;;6.63;100.00
59951;BME280;45812;53.540;9.774;2023-02-13T03:57:18;103779.00;;;6.62;100.00
59951;BME280;45812;53.540;9.774;2023-02-13T04:00:08;103773.75;;;6.60;100.00
59951;BME280;45812;53.540;9.774;2023-02-13T04:02:40;103773.84;;;6.59;100.00
59951;BME280;45812;53.540;9.774;2023-02-13T04:05:17;103773.09;;;6.55;100.00
59951;BME280;45812;53.540;9.774;2023-02-13T04:07:44;103771.38;;;6.54;100.00
59951;BME280;45812;53.540;9.774;2023-02-13T04:10:12;103776.69;;;6.54;100.00
59951;BME280;45812;53.540;9.774;2023-02-13T04:12:50;103774.97;;;6.53;100.00
59951;BME280;45812;53.540;9.774;2023-02-13T04:15:21;103776.69;;;6.54;100.00
59951;BME280;45812;53.540;9.774;2023-02-13T04:20:50;103770.59;;;6.52;100.00
59951;BME280;45812;53.540;9.774;2023-02-13T04:23:15;103768.97;;;6.48;100.00
59951;BME280;45812;53.540;9.774;2023-02-13T04:25:45;103769.72;;;6.52;100.00
59951;BME280;45812;53.540;9.774;2023-02-13T04:28:11;103765.41;;;6.49;100.00
59951;BME280;45812;53.540;9.774;2023-02-13T04:30:37;103764.25;;;6.56;100.00
59951;BME280;45812;53.540;9.774;2023-02-13T04:33:02;103762.53;;;6.55;100.00
59951;BME280;45812;53.540;9.774;2023-02-13T04:35:27;103760.78;;;6.54;100.00
59951;BME280;45812;53.540;9.774;2023-02-13T04:37:53;103762.59;;;6.54;100.00
59951;BME280;45812;53.540;9.774;2023-02-13T04:40:18;103757.22;;;6.55;100.00
59951;BME280;45812;53.540;9.774;2023-02-13T04:42:46;103751.81;;;6.58;100.00
59951;BME280;45812;53.540;9.774;2023-02-13T04:45:12;103755.31;;;6.59;100.00
59951;BME280;45812;53.540;9.774;2023-02-13T04:47:38;103748.22;;;6.59;100.00
59951;BME280;45812;53.540;9.774;2023-02-13T04:50:03;103755.16;;;6.62;100.00
59951;BME280;45812;53.540;9.774;2023-02-13T04:52:28;103754.25;;;6.63;100.00
59951;BME280;45812;53.540;9.774;2023-02-13T04:54:54;103755.91;;;6.65;100.00
59951;BME280;45812;53.540;9.774;2023-02-13T04:57:19;103756.69;;;6.67;100.00
59951;BME280;45812;53.540;9.774;2023-02-13T04:59:44;103755.75;;;6.68;100.00
59951;BME280;45812;53.540;9.774;2023-02-13T05:02:09;103753.25;;;6.65;100.00
59951;BME280;45812;53.540;9.774;2023-02-13T05:04:35;103750.59;;;6.65;100.00
59951;BME280;45812;53.540;9.774;2023-02-13T05:07:00;103750.53;;;6.67;100.00
59951;BME280;45812;53.540;9.774;2023-02-13T05:09:25;103749.59;;;6.68;100.00
59951;BME280;45812;53.540;9.774;2023-02-13T05:11:52;103754.97;;;6.66;100.00
59951;BME280;45812;53.540;9.774;2023-02-13T05:14:17;103755.91;;;6.65;100.00
59951;BME280;45812;53.540;9.774;2023-02-13T05:16:42;103753.19;;;6.67;100.00
59951;BME280;45812;53.540;9.774;2023-02-13T05:19:07;103756.69;;;6.67;100.00
59951;BME280;45812;53.540;9.774;2023-02-13T05:21:33;103753.13;;;6.68;100.00
59951;BME280;45812;53.540;9.774;2023-02-13T05:24:17;103749.56;;;6.70;100.00
59951;BME280;45812;53.540;9.774;2023-02-13T05:26:42;103748.81;;;6.66;100.00
59951;BME280;45812;53.540;9.774;2023-02-13T05:29:08;103751.53;;;6.64;100.00
59951;BME280;45812;53.540;9.774;2023-02-13T05:31:44;103756.03;;;6.62;100.00
59951;BME280;45812;53.540;9.774;2023-02-13T05:34:09;103758.88;;;6.58;100.00
59951;BME280;45812;53.540;9.774;2023-02-13T05:36:34;103768.31;;;6.21;100.00
59951;BME280;45812;53.540;9.774;2023-02-13T05:39:00;103760.94;;;6.07;100.00
59951;BME280;45812;53.540;9.774;2023-02-13T05:41:25;103768.06;;;6.05;100.00
59951;BME280;45812;53.540;9.774;2023-02-13T05:43:50;103767.94;;;6.08;100.00
59951;BME280;45812;53.540;9.774;2023-02-13T05:46:15;103767.59;;;6.18;100.00
59951;BME280;45812;53.540;9.774;2023-02-13T05:48:41;103767.22;;;6.27;100.00
59951;BME280;45812;53.540;9.774;2023-02-13T05:51:06;103764.34;;;6.33;100.00
59951;BME280;45812;53.540;9.774;2023-02-13T05:53:31;103774.09;;;6.31;100.00
59951;BME280;45812;53.540;9.774;2023-02-13T05:56:00;103777.91;;;6.24;100.00
59951;BME280;45812;53.540;9.774;2023-02-13T05:58:25;103778.72;;;6.26;100.00
59951;BME280;45812;53.540;9.774;2023-02-13T06:00:55;103778.53;;;6.30;100.00
59951;BME280;45812;53.540;9.774;2023-02-13T06:03:21;103781.66;;;6.40;100.00
59951;BME280;45812;53.540;9.774;2023-02-13T06:05:47;103784.38;;;6.38;100.00
59951;BME280;45812;53.540;9.774;2023-02-13T06:08:12;103785.91;;;6.44;100.00
59951;BME280;45812;53.540;9.774;2023-02-13T06:10:37;103794.63;;;6.46;100.00
59951;BME280;45812;53.540;9.774;2023-02-13T06:13:02;103792.91;;;6.45;100.00
59951;BME280;45812;53.540;9.774;2023-02-13T06:15:28;103799.88;;;6.48;100.00
59951;BME280;45812;53.540;9.774;2023-02-13T06:17:53;103799.78;;;6.49;100.00
59951;BME280;45812;53.540;9.774;2023-02-13T06:20:19;103794.50;;;6.49;100.00
59951;BME280;45812;53.540;9.774;2023-02-13T06:22:47;103798.84;;;6.52;100.00
59951;BME280;45812;53.540;9.774;2023-02-13T06:25:13;103797.97;;;6.51;100.00
59951;BME280;45812;53.540;9.774;2023-02-13T06:27:38;103792.97;;;6.44;100.00
59951;BME280;45812;53.540;9.774;2023-02-13T06:30:04;103792.25;;;6.40;100.00
59951;BME280;45812;53.540;9.774;2023-02-13T06:32:29;103801.03;;;6.41;100.00
59951;BME280;45812;53.540;9.774;2023-02-13T06:34:54;103790.53;;;6.39;100.00
59951;BME280;45812;53.540;9.774;2023-02-13T06:37:20;103800.97;;;6.42;100.00
59951;BME280;45812;53.540;9.774;2023-02-13T06:39:45;103800.06;;;6.43;100.00
59951;BME280;45812;53.540;9.774;2023-02-13T06:42:10;103804.50;;;6.43;100.00
59951;BME280;45812;53.540;9.774;2023-02-13T06:44:35;103808.84;;;6.44;100.00
59951;BME280;45812;53.540;9.774;2023-02-13T06:47:00;103813.28;;;6.43;100.00
59951;BME280;45812;53.540;9.774;2023-02-13T06:49:26;103815.94;;;6.43;100.00
59951;BME280;45812;53.540;9.774;2023-02-13T06:51:51;103816.78;;;6.44;100.00
59951;BME280;45812;53.540;9.774;2023-02-13T06:54:16;103814.09;;;6.45;100.00
59951;BME280;45812;53.540;9.774;2023-02-13T06:56:42;103808.78;;;6.45;100.00
59951;BME280;45812;53.540;9.774;2023-02-13T06:59:07;103814.94;;;6.46;100.00
59951;BME280;45812;53.540;9.774;2023-02-13T07:01:32;103818.28;;;6.51;100.00
59951;BME280;45812;53.540;9.774;2023-02-13T07:03:57;103833.06;;;6.56;100.00
59951;BME280;45812;53.540;9.774;2023-02-13T07:06:23;103828.69;;;6.55;100.00
59951;BME280;45812;53.540;9.774;2023-02-13T07:08:48;103831.19;;;6.58;100.00
59951;BME280;45812;53.540;9.774;2023-02-13T07:11:19;103828.47;;;6.60;100.00
59951;BME280;45812;53.540;9.774;2023-02-13T07:13:45;103835.31;;;6.65;100.00
59951;BME280;45812;53.540;9.774;2023-02-13T07:16:10;103839.66;;;6.66;100.00
59951;BME280;45812;53.540;9.774;2023-02-13T07:18:36;103834.44;;;6.65;100.00
59951;BME280;45812;53.540;9.774;2023-02-13T07:21:02;103844.97;;;6.66;100.00
59951;BME280;45812;53.540;9.774;2023-02-13T07:23:27;103850.19;;;6.68;100.00
59951;BME280;45812;53.540;9.774;2023-02-13T07:25:52;103839.50;;;6.71;100.00
59951;BME280;45812;53.540;9.774;2023-02-13T07:28:17;103840.38;;;6.72;100.00
59951;BME280;45812;53.540;9.774;2023-02-13T07:30:43;103835.00;;;6.73;100.00
59951;BME280;45812;53.540;9.774;2023-02-13T07:33:08;103842.88;;;6.75;100.00
59951;BME280;45812;53.540;9.774;2023-02-13T07:35:34;103837.53;;;6.76;100.00
59951;BME280;45812;53.540;9.774;2023-02-13T07:38:02;103844.59;;;6.76;100.00
59951;BME280;45812;53.540;9.774;2023-02-13T07:40:27;103843.63;;;6.78;100.00
59951;BME280;45812;53.540;9.774;2023-02-13T07:42:53;103846.19;;;6.80;100.00
59951;BME280;45812;53.540;9.774;2023-02-13T07:45:18;103841.69;;;6.82;100.00
59951;BME280;45812;53.540;9.774;2023-02-13T07:47:43;103838.78;;;6.88;100.00
59951;BME280;45812;53.540;9.774;2023-02-13T07:50:10;103842.13;;;6.93;100.00
59951;BME280;45812;53.540;9.774;2023-02-13T07:52:35;103851.78;;;6.94;100.00
59951;BME280;45812;53.540;9.774;2023-02-13T07:55:02;103848.13;;;6.96;100.00
59951;BME280;45812;53.540;9.774;2023-02-13T07:57:27;103848.81;;;7.02;100.00
59951;BME280;45812;53.540;9.774;2023-02-13T07:59:52;103849.66;;;7.02;100.00
59951;BME280;45812;53.540;9.774;2023-02-13T08:02:18;103854.72;;;7.08;100.00
59951;BME280;45812;53.540;9.774;2023-02-13T08:04:43;103858.94;;;7.12;100.00
59951;BME280;45812;53.540;9.774;2023-02-13T08:07:15;103861.53;;;7.14;100.00
59951;BME280;45812;53.540;9.774;2023-02-13T08:09:40;103855.25;;;7.16;100.00
59951;BME280;45812;53.540;9.774;2023-02-13T08:12:26;103854.31;;;7.17;100.00
59951;BME280;45812;53.540;9.774;2023-02-13T08:14:52;103847.94;;;7.21;100.00
59951;BME280;45812;53.540;9.774;2023-02-13T08:17:17;103851.53;;;7.20;100.00
59951;BME280;45812;53.540;9.774;2023-02-13T08:19:42;103847.88;;;7.23;100.00
59951;BME280;45812;53.540;9.774;2023-02-13T08:22:08;103847.56;;;7.31;100.00
59951;BME280;45812;53.540;9.774;2023-02-13T08:24:33;103842.84;;;7.37;100.00
59951;BME280;45812;53.540;9.774;2023-02-13T08:26:58;103850.78;;;7.37;100.00
59951;BME280;45812;53.540;9.774;2023-02-13T08:29:23;103849.00;;;7.38;100.00
59951;BME280;45812;53.540;9.774;2023-02-13T08:31:49;103852.44;;;7.40;100.00
59951;BME280;45812;53.540;9.774;2023-02-13T08:34:14;103854.09;;;7.42;100.00
59951;BME280;45812;53.540;9.774;2023-02-13T08:36:39;103855.78;;;7.45;100.00
59951;BME280;45812;53.540;9.774;2023-02-13T08:39:04;103851.19;;;7.48;100.00
59951;BME280;45812;53.540;9.774;2023-02-13T08:41:30;103846.69;;;7.50;100.00
59951;BME280;45812;53.540;9.774;2023-02-13T08:43:55;103851.91;;;7.52;100.00
59951;BME280;45812;53.540;9.774;2023-02-13T08:46:21;103855.34;;;7.54;100.00
59951;BME280;45812;53.540;9.774;2023-02-13T08:48:46;103862.31;;;7.56;100.00
59951;BME280;45812;53.540;9.774;2023-02-13T08:51:12;103863.25;;;7.55;100.00
59951;BME280;45812;53.540;9.774;2023-02-13T08:53:38;103855.28;;;7.55;100.00
59951;BME280;45812;53.540;9.774;2023-02-13T08:56:04;103857.78;;;7.58;100.00
59951;BME280;45812;53.540;9.774;2023-02-13T08:58:30;103849.84;;;7.58;100.00
59951;BME280;45812;53.540;9.774;2023-02-13T09:00:55;103853.16;;;7.64;100.00
59951;BME280;45812;53.540;9.774;2023-02-13T09:03:20;103857.53;;;7.65;100.00
59951;BME280;45812;53.540;9.774;2023-02-13T09:05:46;103855.69;;;7.67;100.00
59951;BME280;45812;53.540;9.774;2023-02-13T09:08:12;103854.75;;;7.68;100.00
59951;BME280;45812;53.540;9.774;2023-02-13T09:10:38;103858.25;;;7.68;100.00
59951;BME280;45812;53.540;9.774;2023-02-13T09:13:03;103858.91;;;7.73;100.00
59951;BME280;45812;53.540;9.774;2023-02-13T09:15:29;103864.00;;;7.78;100.00
59951;BME280;45812;53.540;9.774;2023-02-13T09:17:55;103857.41;;;7.86;100.00
59951;BME280;45812;53.540;9.774;2023-02-13T09:20:20;103855.56;;;7.88;100.00
59951;BME280;45812;53.540;9.774;2023-02-13T09:22:46;103859.00;;;7.90;100.00
59951;BME280;45812;53.540;9.774;2023-02-13T09:25:11;103856.97;;;7.96;100.00
59951;BME280;45812;53.540;9.774;2023-02-13T09:27:36;103861.44;;;7.95;100.00
59951;BME280;45812;53.540;9.774;2023-02-13T09:30:05;103858.63;;;7.98;100.00
59951;BME280;45812;53.540;9.774;2023-02-13T09:32:30;103855.56;;;7.88;100.00
59951;BME280;45812;53.540;9.774;2023-02-13T09:34:55;103864.38;;;7.89;100.00
59951;BME280;45812;53.540;9.774;2023-02-13T09:37:20;103858.72;;;7.97;100.00
59951;BME280;45812;53.540;9.774;2023-02-13T09:39:46;103863.00;;;7.99;100.00
59951;BME280;45812;53.540;9.774;2023-02-13T09:42:21;103863.94;;;7.98;100.00
59951;BME280;45812;53.540;9.774;2023-02-13T09:44:50;103862.88;;;8.02;100.00
59951;BME280;45812;53.540;9.774;2023-02-13T09:50:02;103861.34;;;7.97;100.00
59951;BME280;45812;53.540;9.774;2023-02-13T09:52:32;103868.53;;;7.95;100.00
59951;BME280;45812;53.540;9.774;2023-02-13T09:54:57;103869.19;;;8.00;100.00
59951;BME280;45812;53.540;9.774;2023-02-13T09:57:30;103871.25;;;8.12;100.00
59951;BME280;45812;53.540;9.774;2023-02-13T10:00:02;103865.88;;;8.13;100.00
59951;BME280;45812;53.540;9.774;2023-02-13T10:02:48;103867.34;;;8.20;100.00
59951;BME280;45812;53.540;9.774;2023-02-13T10:05:45;103868.59;;;8.12;100.00
59951;BME280;45812;53.540;9.774;2023-02-13T10:11:13;103864.75;;;8.19;100.00
59951;BME280;45812;53.540;9.774;2023-02-13T10:14:01;103855.88;;;8.20;100.00
59951;BME280;45812;53.540;9.774;2023-02-13T10:19:03;103845.31;;;8.56;100.00
59951;BME280;45812;53.540;9.774;2023-02-13T10:21:36;103860.06;;;8.62;100.00
59951;BME280;45812;53.540;9.774;2023-02-13T10:24:09;103852.88;;;8.64;100.00
59951;BME280;45812;53.540;9.774;2023-02-13T10:26:38;103856.47;;;8.63;100.00
59951;BME280;45812;53.540;9.774;2023-02-13T10:29:20;103855.47;;;8.65;100.00
59951;BME280;45812;53.540;9.774;2023-02-13T10:32:08;103853.06;;;8.78;100.00
59951;BME280;45812;53.540;9.774;2023-02-13T10:34:39;103860.28;;;8.93;100.00
59951;BME280;45812;53.540;9.774;2023-02-13T10:37:13;103852.69;;;9.03;100.00
59951;BME280;45812;53.540;9.774;2023-02-13T10:39:42;103854.66;;;8.99;100.00
59951;BME280;45812;53.540;9.774;2023-02-13T10:42:21;103842.47;;;8.95;100.00
59951;BME280;45812;53.540;9.774;2023-02-13T10:47:51;103847.28;;;9.04;100.00
59951;BME280;45812;53.540;9.774;2023-02-13T10:53:02;103854.56;;;9.35;100.00
59951;BME280;45812;53.540;9.774;2023-02-13T10:55:54;103850.97;;;9.02;100.00
59951;BME280;45812;53.540;9.774;2023-02-13T11:01:24;103858.75;;;8.88;100.00
59951;BME280;45812;53.540;9.774;2023-02-13T11:04:04;103850.19;;;8.83;100.00
59951;BME280;45812;53.540;9.774;2023-02-13T11:06:33;103840.25;;;8.86;100.00
59951;BME280;45812;53.540;9.774;2023-02-13T11:08:59;103839.00;;;8.76;100.00
59951;BME280;45812;53.540;9.774;2023-02-13T11:16:52;103834.25;;;8.83;100.00
59951;BME280;45812;53.540;9.774;2023-02-13T11:21:58;103835.09;;;8.83;100.00
59951;BME280;45812;53.540;9.774;2023-02-13T11:24:26;103844.00;;;8.82;100.00
59951;BME280;45812;53.540;9.774;2023-02-13T11:26:57;103849.94;;;8.87;100.00
59951;BME280;45812;53.540;9.774;2023-02-13T11:29:32;103840.25;;;8.86;100.00
59951;BME280;45812;53.540;9.774;2023-02-13T11:34:40;103832.56;;;8.63;100.00
59951;BME280;45812;53.540;9.774;2023-02-13T11:37:16;103832.06;;;8.55;100.00
59951;BME280;45812;53.540;9.774;2023-02-13T11:39:43;103826.38;;;8.45;100.00
59951;BME280;45812;53.540;9.774;2023-02-13T11:42:19;103823.78;;;8.43;100.00
59951;BME280;45812;53.540;9.774;2023-02-13T11:44:51;103825.13;;;8.52;100.00
59951;BME280;45812;53.540;9.774;2023-02-13T11:47:29;103815.38;;;8.53;100.00
59951;BME280;45812;53.540;9.774;2023-02-13T11:49:56;103823.13;;;8.57;100.00
59951;BME280;45812;53.540;9.774;2023-02-13T11:52:25;103820.59;;;8.54;100.00
59951;BME280;45812;53.540;9.774;2023-02-13T11:55:34;103820.56;;;8.56;100.00
59951;BME280;45812;53.540;9.774;2023-02-13T12:00:40;103829.59;;;8.69;99.97
59951;BME280;45812;53.540;9.774;2023-02-13T12:03:29;103830.69;;;8.65;99.65
59951;BME280;45812;53.540;9.774;2023-02-13T12:06:05;103830.69;;;8.65;99.03
59951;BME280;45812;53.540;9.774;2023-02-13T12:08:38;103820.69;;;8.53;99.85
59951;BME280;45812;53.540;9.774;2023-02-13T12:11:16;103817.50;;;8.63;98.17
59951;BME280;45812;53.540;9.774;2023-02-13T12:13:45;103818.38;;;8.64;98.21
59951;BME280;45812;53.540;9.774;2023-02-13T12:19:02;103808.06;;;8.58;95.10
59951;BME280;45812;53.540;9.774;2023-02-13T12:24:20;103809.63;;;8.62;94.52
59951;BME280;45812;53.540;9.774;2023-02-13T12:26:51;103812.59;;;8.56;94.41
59951;BME280;45812;53.540;9.774;2023-02-13T12:29:36;103809.63;;;8.79;93.57
59951;BME280;45812;53.540;9.774;2023-02-13T12:32:32;103809.88;;;8.74;88.14
59951;BME280;45812;53.540;9.774;2023-02-13T12:35:27;103803.75;;;8.72;86.30
59951;BME280;45812;53.540;9.774;2023-02-13T12:38:26;103803.28;;;8.64;86.12
59951;BME280;45812;53.540;9.774;2023-02-13T12:49:15;103806.47;;;8.54;87.41
59951;BME280;45812;53.540;9.774;2023-02-13T12:52:00;103813.75;;;8.67;88.37
59951;BME280;45812;53.540;9.774;2023-02-13T12:57:42;103801.34;;;8.68;89.70
59951;BME280;45812;53.540;9.774;2023-02-13T13:00:35;103794.53;;;8.62;90.12
59951;BME280;45812;53.540;9.774;2023-02-13T13:03:38;103789.16;;;8.64;90.78
59951;BME280;45812;53.540;9.774;2023-02-13T13:06:30;103792.50;;;8.67;91.46
59951;BME280;45812;53.540;9.774;2023-02-13T13:09:04;103787.44;;;8.63;92.57
59951;BME280;45812;53.540;9.774;2023-02-13T13:11:50;103779.56;;;8.78;91.83
59951;BME280;45812;53.540;9.774;2023-02-13T13:20:21;103788.69;;;8.73;92.43
59951;BME280;45812;53.540;9.774;2023-02-13T13:22:49;103782.81;;;8.84;92.32
59951;BME280;45812;53.540;9.774;2023-02-13T13:25:56;103777.19;;;8.90;92.39
59951;BME280;45812;53.540;9.774;2023-02-13T13:28:34;103778.63;;;8.97;92.14
59951;BME280;45812;53.540;9.774;2023-02-13T13:31:02;103785.47;;;9.01;91.89
59951;BME280;45812;53.540;9.774;2023-02-13T13:33:28;103790.47;;;9.07;91.02
59951;BME280;45812;53.540;9.774;2023-02-13T13:36:30;103784.69;;;8.99;91.86
59951;BME280;45812;53.540;9.774;2023-02-13T13:39:02;103786.34;;;9.01;90.35
59951;BME280;45812;53.540;9.774;2023-02-13T13:42:03;103783.00;;;8.80;89.63
59951;BME280;45812;53.540;9.774;2023-02-13T13:47:24;103775.41;;;8.56;90.87
59951;BME280;45812;53.540;9.774;2023-02-13T13:49:56;103769.78;;;8.44;90.75
59951;BME280;45812;53.540;9.774;2023-02-13T13:52:28;103763.75;;;8.41;91.66
59951;BME280;45812;53.540;9.774;2023-02-13T13:54:56;103760.66;;;8.31;91.96
59951;BME280;45812;53.540;9.774;2023-02-13T13:57:26;103760.88;;;8.27;92.17
59951;BME280;45812;53.540;9.774;2023-02-13T14:07:39;103760.47;;;8.17;92.69
59951;BME280;45812;53.540;9.774;2023-02-13T14:23:32;103757.25;;;8.10;93.75
59951;BME280;45812;53.540;9.774;2023-02-13T14:29:19;103756.00;;;8.17;94.54
59951;BME280;45812;53.540;9.774;2023-02-13T14:32:01;103766.81;;;8.32;94.14
59951;BME280;45812;53.540;9.774;2023-02-13T14:34:34;103767.56;;;8.35;94.03
59951;BME280;45812;53.540;9.774;2023-02-13T14:37:14;103772.03;;;8.33;94.07
59951;BME280;45812;53.540;9.774;2023-02-13T14:40:29;103771.41;;;8.28;93.92
59951;BME280;45812;53.540;9.774;2023-02-13T14:43:19;103763.31;;;8.31;93.42
59951;BME280;45812;53.540;9.774;2023-02-13T14:45:52;103762.13;;;8.19;93.17
59951;BME280;45812;53.540;9.774;2023-02-13T14:48:19;103764.59;;;8.05;93.11
59951;BME280;45812;53.540;9.774;2023-02-13T14:50:49;103755.91;;;8.02;92.57
59951;BME280;45812;53.540;9.774;2023-02-13T14:53:20;103764.16;;;7.96;94.00
59951;BME280;45812;53.540;9.774;2023-02-13T14:55:52;103759.28;;;8.05;94.33
59951;BME280;45812;53.540;9.774;2023-02-13T14:58:24;103761.78;;;8.08;94.84